CheckWX is a tool to help pilots better visualize weather data.  It is not intended as a substitute for an official pre-flight weather briefing.

15:38:51 UTC

KCVS METAR
Cannon AFB Airport
Clovis, New Mexico, USA
Current

41 mins ago

KCVS 241458Z 08007KT 10SM BKN024 20/13 A3012 RMK AO2A CIG 023 RWY31 SLP145 T02030125 $
Observed
Jun-24 @ 14:58 UTC
Wind
  • 080° at 7 KTS
Visibility
10 SM
Flight Rules
MVFR
Cloud Levels
  • Broken at 2,400' AGL
Temperature
20°C / 68°F
Dewpoint
13°C / 55°F
Humidity
64%
Altimeter
30.12" Hg
Pressure
1020.02 hPa
Previous

1 hour ago

KCVS 241418Z AUTO 10010KT 10SM OVC020 19/12 A3012 RMK AO2 SLP145 $
Observed
Jun-24 @ 14:18 UTC
Wind
  • 100° at 10 KTS
Visibility
10 SM
Flight Rules
MVFR
Cloud Levels
  • Overcast at 2,000' AGL
Temperature
19°C / 66°F
Dewpoint
12°C / 54°F
Humidity
64%
Altimeter
30.12" Hg
Pressure
1020.02 hPa
Previous

2 hours ago

KCVS 241358Z 07008KT 10SM OVC019 18/11 A3011 RMK AO2A CIG 018 RWY31 SLPNO ALSTG ESTMD T01830109 $
Observed
Jun-24 @ 13:58 UTC
Wind
  • 070° at 8 KTS
Visibility
10 SM
Flight Rules
MVFR
Cloud Levels
  • Overcast at 1,900' AGL
Temperature
18°C / 64°F
Dewpoint
11°C / 52°F
Humidity
64%
Altimeter
30.11" Hg
Pressure
1019.62 hPa